Time;durP1;ratioP1;P1;durP2;ratioP2;P2;SDS_P1;SDS_P2;PMS_P1;PMS_P2;Temp;Humidity;BMP_temperature;BMP_pressure;BME280_temperature;BME280_humidity;BME280_pressure;Samples;Min_cycle;Max_cycle;Signal;HPM_P1;HPM_P2
2023/01/18 02:34:39;;;;;;;11.65;7.40;;;;;;;0.46;86.04;98431.41;4993242;28;20089;-80
2023/01/18 04:19:35;;;;;;;8.05;5.00;;;;;;;0.50;87.08;98451.06;4981118;28;20057;-81
2023/01/18 04:53:02;;;;;;;10.35;5.70;;;;;;;0.60;86.96;98460.91;5014056;28;20073;-81
2023/01/18 07:01:58;;;;;;;11.95;6.13;;;;;;;0.62;88.95;98573.81;4966860;28;20054;-81
2023/01/18 07:04:26;;;;;;;10.90;5.68;;;;;;;0.62;89.30;98583.34;4987197;28;20042;-79
2023/01/18 07:06:55;;;;;;;13.07;5.80;;;;;;;0.67;88.98;98573.59;4966092;28;20046;-80
2023/01/18 07:09:24;;;;;;;14.68;6.03;;;;;;;0.67;88.77;98576.19;4968357;28;20082;-80
2023/01/18 07:11:53;;;;;;;10.27;5.97;;;;;;;0.62;88.40;98579.00;4983399;28;20073;-80
2023/01/18 07:14:24;;;;;;;14.35;6.65;;;;;;;0.59;88.10;98574.00;4987041;28;20061;-80
2023/01/18 07:17:01;;;;;;;12.70;6.45;;;;;;;0.54;88.22;98585.50;4974566;28;20081;-80
2023/01/18 07:19:30;;;;;;;12.95;6.55;;;;;;;0.48;88.38;98581.47;4978160;28;20491;-82
2023/01/18 07:22:02;;;;;;;12.20;5.53;;;;;;;0.44;88.75;98591.13;4977566;28;20062;-81
2023/01/18 07:24:30;;;;;;;9.27;5.15;;;;;;;0.43;88.47;98599.81;4963817;28;20042;-80
2023/01/18 07:26:59;;;;;;;9.43;5.35;;;;;;;0.50;89.09;98601.19;4965251;28;20066;-81
2023/01/18 07:29:33;;;;;;;12.68;5.43;;;;;;;0.59;88.99;98612.00;4964473;28;20054;-80
2023/01/18 07:32:04;;;;;;;12.02;6.00;;;;;;;0.57;88.71;98598.28;4966327;28;20066;-81
2023/01/18 07:34:45;;;;;;;13.63;5.35;;;;;;;0.63;88.86;98606.59;5005772;28;20041;-80
2023/01/18 07:37:14;;;;;;;9.75;5.75;;;;;;;0.71;88.76;98613.97;4972234;28;20070;-79
2023/01/18 07:39:45;;;;;;;11.32;6.38;;;;;;;0.72;88.35;98603.53;4994707;28;20167;-80
2023/01/18 07:42:26;;;;;;;7.97;5.00;;;;;;;0.68;88.11;98619.31;4977872;28;20046;-79
2023/01/18 07:44:54;;;;;;;11.85;5.78;;;;;;;0.69;88.47;98618.38;4981433;28;20141;-79
2023/01/18 07:47:26;;;;;;;10.52;4.93;;;;;;;0.65;88.14;98611.69;4976980;28;20050;-82
2023/01/18 07:49:57;;;;;;;10.60;5.43;;;;;;;0.71;88.81;98612.19;4980854;28;20050;-79
2023/01/18 07:52:26;;;;;;;13.65;6.10;;;;;;;0.72;88.50;98611.31;4997762;28;20058;-81
2023/01/18 07:54:55;;;;;;;8.20;4.88;;;;;;;0.78;88.45;98609.31;4967661;28;20065;-81
2023/01/18 07:57:27;;;;;;;15.13;5.68;;;;;;;0.83;88.43;98607.31;4995002;28;20043;-80
2023/01/18 07:59:59;;;;;;;12.23;5.70;;;;;;;0.77;88.17;98592.94;4988772;28;20038;-80
2023/01/18 08:07:00;;;;;;;13.70;5.28;;;;;;;0.73;88.33;98601.78;4972044;28;20072;-80
2023/01/18 08:09:28;;;;;;;9.30;5.00;;;;;;;0.75;88.41;98594.75;5014115;28;20114;-81
2023/01/18 08:11:56;;;;;;;11.40;5.22;;;;;;;0.79;88.35;98604.06;5012140;28;20135;-80
2023/01/18 08:14:28;;;;;;;5.72;4.13;;;;;;;0.86;88.10;98596.81;4994153;28;20034;-79
2023/01/18 08:16:56;;;;;;;9.98;4.05;;;;;;;0.90;87.80;98599.16;5008063;28;20470;-81
2023/01/18 08:19:27;;;;;;;9.43;4.50;;;;;;;0.90;87.79;98606.94;5018262;28;20866;-78
2023/01/18 08:22:01;;;;;;;6.93;3.78;;;;;;;0.95;87.71;98606.69;5018204;28;20069;-78
2023/01/18 08:24:34;;;;;;;12.00;4.72;;;;;;;0.98;87.61;98607.34;5004427;28;20085;-79
2023/01/18 08:27:02;;;;;;;6.85;4.30;;;;;;;0.98;87.88;98607.34;5008404;28;20103;-81
2023/01/18 08:29:31;;;;;;;10.77;4.85;;;;;;;1.04;87.64;98605.34;5008881;28;20041;-82
2023/01/18 08:32:05;;;;;;;7.22;4.10;;;;;;;1.08;87.40;98605.16;4991675;28;20064;-80
2023/01/18 08:34:39;;;;;;;6.53;4.20;;;;;;;1.13;87.22;98605.72;4994575;28;20049;-81
2023/01/18 08:37:08;;;;;;;8.93;4.07;;;;;;;1.10;86.92;98605.06;4996202;28;20439;-81
2023/01/18 08:39:35;;;;;;;12.07;4.20;;;;;;;1.02;87.04;98611.47;5020110;28;20129;-78
2023/01/18 08:42:47;;;;;;;11.32;4.60;;;;;;;1.02;87.42;98619.22;5006801;28;20153;-78
2023/01/18 08:45:16;;;;;;;7.80;4.07;;;;;;;1.06;87.55;98619.09;5010149;28;20046;-79
2023/01/18 08:47:50;;;;;;;13.30;4.10;;;;;;;1.13;87.57;98620.44;5026308;28;20088;-80
2023/01/18 08:50:32;;;;;;;;;;;;;;;1.16;87.67;98618.50;4999900;28;20081;-79
2023/01/18 08:53:04;;;;;;;10.88;5.00;;;;;;;1.22;87.37;98618.22;4981548;28;19921;-79
2023/01/18 08:55:35;;;;;;;9.07;4.53;;;;;;;1.30;87.06;98624.72;4993405;28;20054;-81
2023/01/18 08:58:03;;;;;;;5.93;3.92;;;;;;;1.38;86.93;98628.59;5000207;28;20253;-80
2023/01/18 09:00:32;;;;;;;11.52;4.88;;;;;;;1.42;86.83;98626.66;5018482;28;20140;-80
2023/01/18 09:03:12;;;;;;;9.35;4.63;;;;;;;1.48;86.52;98631.50;5016322;28;20058;-80
2023/01/18 09:05:43;;;;;;;7.43;4.03;;;;;;;1.42;85.88;98643.06;5018170;28;20136;-78
2023/01/18 09:08:31;;;;;;;9.13;4.40;;;;;;;1.45;86.25;98632.53;5008319;28;20082;-79
2023/01/18 09:11:05;;;;;;;10.10;4.47;;;;;;;1.46;86.17;98633.38;5017554;28;20106;-79
2023/01/18 09:13:40;;;;;;;9.60;3.88;;;;;;;1.50;86.39;98640.91;5000476;28;20121;-80
2023/01/18 09:16:36;;;;;;;8.32;4.22;;;;;;;1.57;86.25;98640.56;4991379;28;20068;-80
2023/01/18 09:19:08;;;;;;;10.25;4.07;;;;;;;1.57;85.94;98648.34;4995562;28;20077;-81
2023/01/18 09:21:45;;;;;;;8.60;4.13;;;;;;;1.54;85.96;98651.13;4986354;28;20069;-81
2023/01/18 09:24:14;;;;;;;;;;;;;;;1.55;86.37;98645.00;5001210;28;20057;-81
2023/01/18 09:26:46;;;;;;;9.88;4.25;;;;;;;1.60;86.30;98650.78;5017942;28;19932;-80
2023/01/18 09:29:15;;;;;;;11.15;5.20;;;;;;;1.62;86.00;98654.09;5021464;28;20050;-80
2023/01/18 09:32:00;;;;;;;12.85;5.10;;;;;;;1.63;86.05;98654.06;4998809;28;20050;-80
2023/01/18 09:34:29;;;;;;;9.88;5.53;;;;;;;1.68;86.03;98644.25;5003235;28;20077;-79
2023/01/18 09:36:58;;;;;;;12.63;5.30;;;;;;;1.73;85.67;98651.78;5023252;28;20100;-79
2023/01/18 09:39:27;;;;;;;12.80;4.30;;;;;;;1.79;85.67;98654.03;5001298;28;20049;-79
2023/01/18 09:42:03;;;;;;;11.77;5.10;;;;;;;1.86;85.73;98657.16;5016350;28;20114;-79
2023/01/18 09:44:38;;;;;;;10.77;4.93;;;;;;;1.95;85.54;98667.03;5019926;28;20018;-79
2023/01/18 09:47:23;;;;;;;11.50;5.93;;;;;;;2.01;85.10;98659.72;5023131;28;20045;-78
2023/01/18 09:50:09;;;;;;;9.80;4.85;;;;;;;2.01;84.71;98669.28;5015377;28;20042;-80
2023/01/18 09:53:02;;;;;;;13.43;5.93;;;;;;;1.99;84.51;98668.53;4999665;28;20068;-81
2023/01/18 09:55:50;;;;;;;13.15;5.55;;;;;;;2.14;85.02;98669.44;5004601;28;20080;-81
2023/01/18 09:59:10;;;;;;;10.68;5.25;;;;;;;2.25;84.85;98670.53;5009322;28;20073;-81
2023/01/18 10:02:59;;;;;;;13.68;5.53;;;;;;;2.24;82.76;98673.19;5004827;28;20115;-80
2023/01/18 10:06:15;;;;;;;10.45;5.03;;;;;;;2.29;84.41;98668.56;4973217;28;20046;-79
2023/01/18 10:09:33;;;;;;;12.38;5.20;;;;;;;2.39;84.26;98672.34;4992016;28;20088;-79
2023/01/18 10:12:33;;;;;;;12.90;5.25;;;;;;;2.47;84.50;98675.31;4999644;28;20065;-80
2023/01/18 10:15:21;;;;;;;13.10;5.57;;;;;;;2.52;84.05;98669.84;5011239;28;20634;-81
2023/01/18 10:17:55;;;;;;;13.05;5.63;;;;;;;2.57;84.07;98665.25;5018231;28;20092;-80
2023/01/18 10:20:56;;;;;;;15.48;6.22;;;;;;;2.59;84.25;98668.59;4983594;28;20696;-79
2023/01/18 10:24:18;;;;;;;12.77;6.28;;;;;;;2.67;84.00;98675.94;5003752;28;20045;-80
2023/01/18 10:26:52;;;;;;;15.90;6.70;;;;;;;2.72;83.74;98676.50;5036923;28;20072;-80
2023/01/18 10:29:41;;;;;;;12.45;6.38;;;;;;;2.75;84.13;98671.16;4999639;28;20037;-79
2023/01/18 10:32:47;;;;;;;14.45;6.50;;;;;;;2.76;83.54;98676.25;5001377;28;20088;-80
2023/01/18 10:35:44;;;;;;;10.82;5.90;;;;;;;2.82;84.29;98674.22;4998072;23;20069;31
2023/01/18 10:38:15;;;;;;;13.35;5.85;;;;;;;2.89;83.68;98668.56;4957664;28;20379;-63
2023/01/18 10:40:49;;;;;;;15.45;7.80;;;;;;;2.88;83.43;98668.66;4946740;28;20082;-64
2023/01/18 10:43:19;;;;;;;14.00;6.93;;;;;;;2.84;83.26;98670.63;4956242;28;20497;-63
2023/01/18 10:45:47;;;;;;;15.45;6.03;;;;;;;2.86;83.45;98670.50;4945324;28;20142;-63
2023/01/18 10:48:16;;;;;;;16.50;6.63;;;;;;;2.84;83.69;98681.00;4922482;29;20504;-63
2023/01/18 10:50:47;;;;;;;11.57;6.35;;;;;;;2.86;83.70;98673.09;4924390;29;20047;-65
2023/01/18 10:53:19;;;;;;;14.57;6.20;;;;;;;2.87;83.01;98673.00;4922405;29;20072;-64
2023/01/18 10:56:06;;;;;;;19.48;6.55;;;;;;;2.87;83.67;98677.38;4937390;28;20060;-65
2023/01/18 10:58:59;;;;;;;19.35;6.50;;;;;;;2.88;83.97;98673.84;4922768;29;20063;-64
2023/01/18 11:01:29;;;;;;;14.85;6.45;;;;;;;2.85;83.83;98680.06;4922237;29;20448;-65
2023/01/18 11:04:13;;;;;;;13.90;6.07;;;;;;;2.84;83.90;98680.16;4923021;29;20138;-65
2023/01/18 11:06:52;;;;;;;9.60;5.63;;;;;;;2.88;83.97;98686.84;4932795;28;20122;-62
2023/01/18 11:09:50;;;;;;;8.88;5.40;;;;;;;2.91;84.65;98684.91;4929725;28;20421;-64
2023/01/18 11:12:37;;;;;;;10.32;5.45;;;;;;;2.89;83.74;98694.56;4939171;28;20054;-63
2023/01/18 11:15:13;;;;;;;15.45;6.10;;;;;;;2.94;84.33;98700.31;4924957;29;20054;-64
2023/01/18 11:17:53;;;;;;;6.88;5.35;;;;;;;2.96;84.45;98703.66;4923570;29;20134;-62
2023/01/18 11:20:28;;;;;;;8.82;4.80;;;;;;;3.00;84.71;98694.75;4929394;29;20459;-64
2023/01/18 11:23:13;;;;;;;12.50;4.57;;;;;;;3.02;84.61;98695.53;4920231;29;20059;-63
2023/01/18 11:25:54;;;;;;;10.98;4.97;;;;;;;3.05;85.38;98689.28;4921102;29;20239;-63
2023/01/18 11:28:23;;;;;;;10.25;4.68;;;;;;;2.98;84.41;98693.19;4939088;28;20060;-63
2023/01/18 11:30:53;;;;;;;14.27;5.45;;;;;;;3.02;85.35;98697.28;4918772;29;20147;-64
2023/01/18 11:33:22;;;;;;;9.52;4.55;;;;;;;3.02;84.45;98695.53;4919901;29;20289;-64
2023/01/18 11:36:03;;;;;;;10.07;4.65;;;;;;;3.03;84.56;98697.19;4939251;28;20134;-64
2023/01/18 11:38:32;;;;;;;8.85;4.35;;;;;;;3.07;84.99;98703.03;4918191;29;20059;-64
2023/01/18 11:41:20;;;;;;;12.85;4.80;;;;;;;3.04;84.80;98698.84;4938204;28;20596;-63
2023/01/18 11:44:05;;;;;;;11.77;4.47;;;;;;;3.09;85.41;98700.34;4918655;29;21043;-63
2023/01/18 11:46:42;;;;;;;9.48;3.88;;;;;;;3.10;85.16;98699.41;4921664;29;20142;-62
2023/01/18 11:49:20;;;;;;;6.32;4.20;;;;;;;3.11;85.49;98706.28;4939691;28;20146;-62
2023/01/18 11:51:53;;;;;;;12.60;4.05;;;;;;;3.09;85.55;98703.78;4939947;28;20099;-63
2023/01/18 11:54:25;;;;;;;7.60;4.22;;;;;;;3.05;85.75;98710.09;4938182;28;20507;-61
2023/01/18 11:56:55;;;;;;;9.77;4.60;;;;;;;2.97;84.30;98709.69;4930723;29;20057;-64
2023/01/18 11:59:27;;;;;;;6.82;3.55;;;;;;;2.89;84.17;98717.94;4927657;29;20319;-60
2023/01/18 12:02:03;;;;;;;10.80;4.15;;;;;;;2.82;84.05;98716.63;4927922;29;20066;-60
2023/01/18 12:04:48;;;;;;;7.38;3.78;;;;;;;2.87;85.07;98714.59;4924837;29;20136;-63
2023/01/18 12:07:26;;;;;;;8.02;4.13;;;;;;;2.89;85.23;98706.72;4915701;29;20138;-63
2023/01/18 12:09:55;;;;;;;7.25;3.78;;;;;;;2.91;85.17;98716.09;4915460;29;20063;-60
2023/01/18 12:12:46;;;;;;;9.93;3.80;;;;;;;2.92;84.85;98715.16;4917455;29;20063;-61
2023/01/18 12:15:28;;;;;;;10.95;4.05;;;;;;;2.95;85.09;98720.19;4925411;29;20050;-61
2023/01/18 12:18:13;;;;;;;8.57;4.75;;;;;;;2.99;85.13;98723.44;4927515;29;20147;-64
2023/01/18 12:20:57;;;;;;;9.02;3.85;;;;;;;3.01;85.03;98725.00;4926098;29;20138;-63
2023/01/18 12:23:51;;;;;;;6.88;3.65;;;;;;;3.00;85.20;98736.34;4940823;28;20150;-63
2023/01/18 12:26:45;;;;;;;9.20;4.07;;;;;;;3.00;84.90;98727.72;4925711;29;20143;-63
2023/01/18 12:29:23;;;;;;;13.20;4.57;;;;;;;3.03;85.34;98732.75;4931920;29;20175;-63
2023/01/18 12:32:05;;;;;;;9.38;4.10;;;;;;;2.99;84.53;98745.06;4932699;29;20182;-63
2023/01/18 12:34:40;;;;;;;6.70;3.85;;;;;;;2.96;84.65;98741.81;4930749;29;20071;-64
2023/01/18 12:37:37;;;;;;;10.88;4.47;;;;;;;3.00;85.21;98745.91;4932110;29;20051;-64
2023/01/18 12:40:12;;;;;;;;;;;;;;;3.08;86.25;98742.88;4933922;29;20047;-63
2023/01/18 12:43:03;;;;;;;9.40;4.03;;;;;;;3.08;85.89;98742.88;4949997;28;19937;-61
2023/01/18 12:45:53;;;;;;;10.82;4.88;;;;;;;2.99;84.77;98747.69;4920170;29;20050;-61
2023/01/18 12:48:39;;;;;;;12.77;4.50;;;;;;;2.99;85.49;98752.88;4934992;28;20060;-60
2023/01/18 12:51:16;;;;;;;8.45;4.25;;;;;;;3.04;85.35;98758.63;4917324;29;20178;-64
2023/01/18 12:53:55;;;;;;;9.55;4.55;;;;;;;3.11;86.46;98763.47;4916512;29;20070;-63
2023/01/18 12:56:31;;;;;;;12.02;4.45;;;;;;;3.10;85.84;98764.41;4918952;29;20063;-64
2023/01/18 12:59:31;;;;;;;13.10;4.82;;;;;;;3.15;86.25;98770.16;4920352;29;20060;-64
2023/01/18 13:02:21;;;;;;;8.30;4.05;;;;;;;3.19;86.04;98769.06;4917070;29;20048;-62
2023/01/18 13:04:54;;;;;;;7.75;4.10;;;;;;;3.22;85.95;98772.34;4937651;28;20083;-62
2023/01/18 13:07:39;;;;;;;9.27;4.80;;;;;;;3.20;85.43;98776.81;4939560;28;20091;-60
2023/01/18 13:10:15;;;;;;;10.10;4.63;;;;;;;3.19;85.88;98774.28;4921149;29;20071;-63
2023/01/18 13:12:43;;;;;;;8.73;4.45;;;;;;;3.16;85.11;98780.50;4917224;29;20150;-64
2023/01/18 13:15:46;;;;;;;7.00;4.43;;;;;;;3.12;85.56;98784.19;4929566;28;20182;-62
2023/01/18 13:18:35;;;;;;;7.20;4.45;;;;;;;3.21;86.19;98793.25;4919447;28;20138;-63
2023/01/18 13:21:26;;;;;;;9.48;4.20;;;;;;;3.22;85.97;98802.69;4923117;29;20435;-60
2023/01/18 13:24:15;;;;;;;13.85;4.55;;;;;;;3.17;86.22;98799.53;4919804;29;20142;-62
2023/01/18 13:26:42;;;;;;;10.70;4.70;;;;;;;3.16;85.58;98803.06;4920927;29;20060;-62
2023/01/18 13:29:18;;;;;;;11.45;4.32;;;;;;;3.11;85.67;98808.53;4922855;29;20073;-62
2023/01/18 13:31:46;;;;;;;11.77;4.50;;;;;;;3.12;85.86;98810.19;4915467;29;20186;-62
2023/01/18 13:34:29;;;;;;;8.70;4.30;;;;;;;3.13;85.88;98816.25;4917250;29;20171;-63
2023/01/18 13:36:57;;;;;;;10.27;4.43;;;;;;;3.18;86.63;98819.41;4920564;29;20151;-62
2023/01/18 13:39:46;;;;;;;15.18;4.38;;;;;;;3.11;84.61;98820.66;4935349;28;20147;-63
2023/01/18 13:42:23;;;;;;;19.77;5.65;;;;;;;3.08;85.67;98820.88;4915158;29;20056;-63
2023/01/18 13:45:29;;;;;;;14.77;5.35;;;;;;;3.16;85.55;98834.28;4927766;29;20075;-63
2023/01/18 13:47:57;;;;;;;7.40;4.22;;;;;;;3.17;85.81;98835.94;4904910;29;20060;-63
2023/01/18 13:50:29;;;;;;;11.93;4.68;;;;;;;3.17;85.56;98833.34;4933411;28;20511;-62
2023/01/18 13:53:08;;;;;;;8.23;4.82;;;;;;;3.19;86.19;98839.28;4921516;29;20064;-58
2023/01/18 14:00:28;;;;;;;13.35;5.55;;;;;;;3.01;82.43;98856.75;4909773;29;20513;-62
2023/01/18 14:06:50;;;;;;;9.23;4.53;;;;;;;3.00;85.05;98866.31;4884257;28;20062;-59
2023/01/18 14:09:35;;;;;;;10.93;4.43;;;;;;;3.04;85.46;98872.19;4912381;28;20117;-63
2023/01/18 14:12:03;;;;;;;11.35;4.75;;;;;;;3.03;85.50;98873.94;4912896;29;20090;-63
2023/01/18 14:14:33;;;;;;;12.45;4.45;;;;;;;2.97;82.44;98881.25;4905187;29;20060;-62
2023/01/18 14:17:16;;;;;;;13.70;4.20;;;;;;;2.93;83.57;98883.19;4904132;29;20131;-62
2023/01/18 14:19:46;;;;;;;13.20;4.70;;;;;;;2.94;85.07;98884.03;4907906;29;20060;-61
2023/01/18 14:22:31;;;;;;;11.55;4.60;;;;;;;2.88;83.88;98887.81;4903386;29;20052;-63
2023/01/18 14:25:07;;;;;;;9.02;4.25;;;;;;;2.83;84.11;98901.97;4905647;29;20091;-64
2023/01/18 14:27:39;;;;;;;8.60;4.38;;;;;;;2.84;84.12;98901.91;4902722;29;20068;-63
2023/01/18 14:30:33;;;;;;;7.90;4.28;;;;;;;2.82;84.89;98900.28;4963241;23;20084;-60
2023/01/18 14:33:10;;;;;;;10.25;4.57;;;;;;;2.78;84.69;98910.00;4992042;28;20096;-59
2023/01/18 14:44:49;;;;;;;14.20;5.50;;;;;;;2.87;86.37;98925.09;4989159;28;20049;-62
2023/01/18 14:47:28;;;;;;;9.57;4.68;;;;;;;2.85;86.51;98926.97;5005838;28;20138;-62
2023/01/18 14:53:36;;;;;;;11.63;5.22;;;;;;;2.88;86.95;98939.78;4983551;28;20905;-61
2023/01/18 14:56:17;;;;;;;10.43;5.13;;;;;;;2.91;86.38;98941.38;4984054;28;20046;-59
2023/01/18 14:58:53;;;;;;;10.32;4.75;;;;;;;2.85;85.91;98958.13;4992066;28;20424;-59
2023/01/18 15:01:28;;;;;;;11.07;5.10;;;;;;;2.78;85.54;98956.78;4990285;28;20591;-62
2023/01/18 15:03:59;;;;;;;10.43;5.22;;;;;;;2.77;85.54;98962.91;4994964;28;20068;-61
2023/01/18 15:06:41;;;;;;;11.85;5.75;;;;;;;2.77;86.23;98957.72;4988323;28;20225;-60
2023/01/18 15:09:08;;;;;;;23.23;6.28;;;;;;;2.82;86.39;98954.88;4994293;28;20144;-62
2023/01/18 15:11:37;;;;;;;11.80;4.80;;;;;;;2.81;86.09;98959.22;4991846;28;20534;-60
2023/01/18 15:14:14;;;;;;;12.52;5.78;;;;;;;2.80;86.18;98965.34;4990578;28;20124;-60
2023/01/18 15:16:41;;;;;;;15.77;5.40;;;;;;;2.79;85.97;98968.84;4986690;28;20145;-60
2023/01/18 15:19:19;;;;;;;10.48;5.70;;;;;;;2.75;86.08;98973.41;4990356;28;20424;-60
2023/01/18 15:21:46;;;;;;;11.90;5.13;;;;;;;2.73;85.37;98970.03;4987880;28;20367;-59
2023/01/18 15:24:19;;;;;;;9.25;5.18;;;;;;;2.76;86.27;98984.63;4986279;28;20050;-61
2023/01/18 15:26:51;;;;;;;12.27;5.70;;;;;;;2.79;86.07;98987.91;4989948;28;20048;-59
2023/01/18 15:29:24;;;;;;;12.48;5.22;;;;;;;2.74;85.06;98989.03;4989648;28;20053;-62
2023/01/18 15:31:54;;;;;;;12.40;5.65;;;;;;;2.69;85.02;98998.84;4987860;28;20053;-60
2023/01/18 15:34:29;;;;;;;9.13;5.18;;;;;;;2.65;84.19;99002.53;4993640;28;20615;-60
2023/01/18 15:36:58;;;;;;;8.57;4.20;;;;;;;2.64;84.48;99011.25;4991310;28;20137;-60
2023/01/18 15:39:26;;;;;;;9.95;5.07;;;;;;;2.65;84.75;99011.16;4988412;28;20589;-62
2023/01/18 15:41:54;;;;;;;13.18;5.25;;;;;;;2.61;83.91;99014.84;4993611;28;20338;-59
2023/01/18 15:44:33;;;;;;;9.70;5.32;;;;;;;2.67;85.05;99018.88;4998274;28;20089;-61
2023/01/18 15:47:01;;;;;;;13.13;5.05;;;;;;;2.69;84.95;99022.22;4988789;28;20201;-59
2023/01/18 15:49:28;;;;;;;10.13;4.85;;;;;;;2.71;85.16;99028.19;4986636;28;20148;-59
2023/01/18 15:51:56;;;;;;;8.27;5.28;;;;;;;2.71;85.10;99029.03;4991525;28;20144;-59
2023/01/18 15:54:26;;;;;;;10.52;5.00;;;;;;;2.71;85.11;99029.03;4989092;28;20054;-61
2023/01/18 15:56:57;;;;;;;8.77;5.55;;;;;;;2.75;85.27;99038.34;4974041;28;20335;-59
2023/01/18 15:59:25;;;;;;;11.88;5.70;;;;;;;2.76;85.34;99037.44;4971394;28;20153;-58
2023/01/18 16:02:04;;;;;;;13.55;5.65;;;;;;;2.78;85.14;99039.94;4986155;28;20153;-59
2023/01/18 16:04:31;;;;;;;8.80;4.88;;;;;;;2.79;85.37;99055.47;4984408;28;20068;-58
2023/01/18 16:07:35;;;;;;;10.18;5.45;;;;;;;2.80;85.44;99056.31;4987448;28;20042;-60
2023/01/18 16:10:17;;;;;;;7.32;5.03;;;;;;;2.82;85.32;99061.41;4985588;28;20085;-61
2023/01/18 16:12:44;;;;;;;9.00;5.15;;;;;;;2.82;84.95;99062.25;4998159;28;20141;-61
2023/01/18 18:43:13;;;;;;;14.50;7.82;;;;;;;1.83;81.28;99254.06;4987290;28;20051;-61
2023/01/18 19:49:02;;;;;;;16.40;8.88;;;;;;;1.41;81.27;99319.88;4952775;28;20125;-84
2023/01/18 19:51:36;;;;;;;23.85;10.52;;;;;;;1.39;81.38;99321.69;4967116;28;20102;-81
2023/01/18 19:54:05;;;;;;;14.48;8.90;;;;;;;1.36;81.32;99314.88;4984569;28;20054;-80
2023/01/18 19:56:34;;;;;;;21.13;10.57;;;;;;;1.30;80.92;99320.31;4949476;28;20054;-84
2023/01/18 20:12:02;;;;;;;14.35;9.60;;;;;;;1.35;81.77;99346.91;4975502;28;20573;-82
2023/01/18 20:14:30;;;;;;;15.73;9.48;;;;;;;1.35;81.60;99340.88;4955151;28;20072;-82
2023/01/18 20:38:29;;;;;;;;;;;;;;;1.23;82.19;99344.81;4983880;28;20045;-81
2023/01/18 20:46:24;;;;;;;18.75;10.45;;;;;;;1.00;80.59;99358.72;4977721;28;20076;-79
2023/01/18 20:48:52;;;;;;;21.48;9.75;;;;;;;0.95;81.60;99364.09;4971237;28;20067;-81
2023/01/18 21:34:34;;;;;;;21.65;11.13;;;;;;;0.78;82.36;99423.47;4984467;28;20038;-83
2023/01/18 21:48:30;;;;;;;20.42;11.32;;;;;;;0.71;82.68;99419.44;4984148;28;20114;-82
